Time;durP1;ratioP1;P1;durP2;ratioP2;P2;SDS_P1;SDS_P2;PMS_P1;PMS_P2;Temp;Humidity;BMP_temperature;BMP_pressure;BME280_temperature;BME280_humidity;BME280_pressure;Samples;Min_cycle;Max_cycle;Signal;HPM_P1;HPM_P2
2023/05/14 00:01:22;;;;;;;1999.90;999.90;;;27.10;97.00;;;;;;5094472;28;20039;-68
2023/05/14 00:03:49;;;;;;;1999.90;999.90;;;27.30;96.50;;;;;;5094575;28;20092;-68
2023/05/14 00:06:16;;;;;;;1999.90;999.90;;;27.50;96.50;;;;;;5096768;28;20049;-68
2023/05/14 00:08:44;;;;;;;1999.90;999.90;;;27.90;96.20;;;;;;5064314;28;20726;-68
2023/05/14 00:11:11;;;;;;;1999.90;999.90;;;28.10;95.30;;;;;;5086247;28;20063;-67
2023/05/14 00:13:38;;;;;;;1999.90;999.90;;;27.80;95.50;;;;;;5095337;28;20534;-68
2023/05/14 00:16:06;;;;;;;1999.90;999.90;;;27.80;94.70;;;;;;5085709;28;20140;-67
2023/05/14 00:18:33;;;;;;;1999.90;999.90;;;27.80;95.40;;;;;;5090475;28;20027;-67
2023/05/14 00:21:00;;;;;;;1999.90;999.90;;;28.00;94.80;;;;;;5088210;28;20021;-68
2023/05/14 00:23:28;;;;;;;1999.90;999.90;;;28.20;95.10;;;;;;5099023;28;20036;-68
2023/05/14 00:25:55;;;;;;;1999.90;999.90;;;28.50;95.00;;;;;;5089250;28;20035;-68
2023/05/14 00:28:22;;;;;;;1999.90;999.90;;;28.90;94.20;;;;;;5100044;28;20076;-68
2023/05/14 00:30:50;;;;;;;1999.90;999.90;;;29.00;94.50;;;;;;5086489;28;20039;-67
2023/05/14 00:33:18;;;;;;;1999.90;999.90;;;29.20;93.80;;;;;;5093142;28;20035;-67
2023/05/14 00:35:45;;;;;;;1999.90;999.90;;;29.40;93.80;;;;;;5089927;28;20365;-68
2023/05/14 00:38:15;;;;;;;1999.90;999.90;;;29.90;93.40;;;;;;5097592;28;20051;-68
2023/05/14 00:40:49;;;;;;;1999.90;999.90;;;30.10;92.90;;;;;;5090434;28;20055;-68
2023/05/14 00:43:21;;;;;;;1999.90;999.90;;;30.30;92.10;;;;;;5095045;28;20713;-68
2023/05/14 00:45:51;;;;;;;1999.90;999.90;;;30.10;92.50;;;;;;5079209;28;20040;-68
2023/05/14 00:48:20;;;;;;;1999.90;999.90;;;30.30;92.00;;;;;;5090695;28;20036;-68
2023/05/14 00:50:50;;;;;;;1999.90;999.90;;;30.40;91.20;;;;;;5088879;28;20051;-68
2023/05/14 00:53:18;;;;;;;1999.90;999.90;;;30.70;91.10;;;;;;5098159;28;20020;-67
2023/05/14 00:55:48;;;;;;;1999.90;999.90;;;31.20;90.60;;;;;;5090192;28;20028;-67
2023/05/14 00:58:17;;;;;;;1999.90;999.90;;;30.90;90.20;;;;;;5083461;28;20355;-68
2023/05/14 01:00:44;;;;;;;1999.90;999.90;;;30.80;89.00;;;;;;5077123;28;20054;-67
2023/05/14 01:03:12;;;;;;;1999.90;999.90;;;30.70;89.80;;;;;;5080886;28;20044;-68
2023/05/14 01:05:43;;;;;;;1999.90;999.90;;;30.90;88.50;;;;;;5071991;28;20032;-68
2023/05/14 01:08:27;;;;;;;1999.90;999.90;;;30.80;89.50;;;;;;5081492;28;20082;-68
2023/05/14 01:11:07;;;;;;;1999.90;999.90;;;31.10;88.30;;;;;;5077915;28;20104;-67
2023/05/14 01:13:51;;;;;;;1999.90;999.90;;;31.00;88.70;;;;;;5088121;28;20035;-67
2023/05/14 01:16:19;;;;;;;1999.90;999.90;;;30.50;90.10;;;;;;5084294;28;20488;-68
2023/05/14 01:18:51;;;;;;;1999.90;999.90;;;30.40;90.20;;;;;;5079717;28;20160;-68
2023/05/14 01:21:37;;;;;;;1999.90;999.90;;;30.60;90.20;;;;;;5078664;28;20043;-68
2023/05/14 01:24:05;;;;;;;1999.90;999.90;;;31.00;89.90;;;;;;5080848;28;20042;-68
2023/05/14 01:26:33;;;;;;;1999.90;999.90;;;31.00;88.20;;;;;;5088166;28;20043;-68
2023/05/14 01:29:19;;;;;;;1999.90;999.90;;;30.00;89.70;;;;;;5078741;28;20036;-68
2023/05/14 01:31:49;;;;;;;1999.90;999.90;;;29.10;90.70;;;;;;5086061;28;20036;-67
2023/05/14 01:34:21;;;;;;;1999.90;999.90;;;29.30;90.60;;;;;;5065388;28;20550;-67
2023/05/14 01:36:50;;;;;;;1999.90;999.90;;;29.90;90.40;;;;;;5084346;28;20028;-68
2023/05/14 01:39:18;;;;;;;1999.90;999.90;;;30.10;90.00;;;;;;5086475;28;20035;-68
2023/05/14 01:41:47;;;;;;;1999.90;999.90;;;29.70;90.30;;;;;;5090844;28;20031;-67
2023/05/14 01:44:14;;;;;;;1999.90;999.90;;;28.90;90.50;;;;;;5092007;28;20051;-67
2023/05/14 01:46:42;;;;;;;1999.90;999.90;;;28.00;91.60;;;;;;5095180;28;20036;-67
2023/05/14 01:49:09;;;;;;;1999.90;999.90;;;27.40;91.80;;;;;;5088386;28;20090;-68
2023/05/14 01:51:36;;;;;;;1999.90;999.90;;;26.50;92.80;;;;;;5077327;28;20696;-68
2023/05/14 01:54:04;;;;;;;1999.90;999.90;;;25.70;93.30;;;;;;5093531;28;20474;-68
2023/05/14 01:56:31;;;;;;;1999.90;999.90;;;24.90;94.40;;;;;;5085038;28;20551;-68
2023/05/14 01:58:59;;;;;;;1999.90;999.90;;;24.30;95.00;;;;;;5087592;28;20487;-68
2023/05/14 02:01:26;;;;;;;1999.90;999.90;;;23.80;95.70;;;;;;5089239;28;20032;-68
2023/05/14 02:03:53;;;;;;;1999.90;999.90;;;23.40;96.40;;;;;;5073304;28;20383;-68
2023/05/14 02:06:24;;;;;;;1999.90;999.90;;;23.10;97.10;;;;;;5086254;28;20488;-67
2023/05/14 02:08:51;;;;;;;1999.90;999.90;;;22.90;97.70;;;;;;5092069;28;20052;-67
2023/05/14 02:11:18;;;;;;;1999.90;999.90;;;22.70;97.60;;;;;;5093497;28;20020;-68
2023/05/14 02:13:46;;;;;;;1999.90;999.90;;;22.60;97.30;;;;;;5095005;28;20245;-68
2023/05/14 02:16:13;;;;;;;1999.90;999.90;;;22.50;98.00;;;;;;5094969;28;20068;-67
2023/05/14 02:18:40;;;;;;;1999.90;999.90;;;22.60;98.70;;;;;;5084261;28;20127;-68
2023/05/14 02:21:08;;;;;;;1999.90;999.90;;;22.60;98.50;;;;;;5096666;28;20028;-67
2023/05/14 02:23:36;;;;;;;1999.90;999.90;;;22.50;98.80;;;;;;5098994;28;20039;-68
2023/05/14 02:26:03;;;;;;;1999.90;999.90;;;22.90;99.20;;;;;;5095889;28;20165;-67
2023/05/14 02:28:31;;;;;;;1999.90;999.90;;;23.10;98.90;;;;;;5097608;28;20026;-68
2023/05/14 02:31:01;;;;;;;1999.90;999.90;;;23.20;97.90;;;;;;5090189;28;20166;-67
2023/05/14 02:33:28;;;;;;;1999.90;999.90;;;23.60;97.10;;;;;;5096225;28;20171;-66
2023/05/14 02:35:55;;;;;;;1999.90;999.90;;;23.50;96.90;;;;;;5090118;28;20042;-68
2023/05/14 02:38:23;;;;;;;1999.90;999.90;;;23.30;97.20;;;;;;5107709;28;20028;-67
2023/05/14 02:40:50;;;;;;;1999.90;999.90;;;23.00;97.60;;;;;;5089892;28;20077;-70
2023/05/14 02:43:17;;;;;;;1999.90;999.90;;;22.70;98.10;;;;;;5086612;28;20032;-69
2023/05/14 02:45:45;;;;;;;1999.90;999.90;;;22.40;97.90;;;;;;5090491;28;20081;-67
2023/05/14 02:48:12;;;;;;;1999.90;999.90;;;22.20;98.60;;;;;;5092687;28;20064;-67
2023/05/14 02:50:39;;;;;;;1999.90;999.90;;;22.00;98.80;;;;;;5091293;28;20040;-67
2023/05/14 02:53:07;;;;;;;1999.90;999.90;;;22.10;98.40;;;;;;5074813;28;20027;-68
2023/05/14 02:55:35;;;;;;;1999.90;999.90;;;22.20;98.40;;;;;;5089166;28;20449;-68
2023/05/14 02:58:03;;;;;;;1999.90;999.90;;;22.30;98.80;;;;;;5062656;28;20038;-69
2023/05/14 03:00:30;;;;;;;1999.90;999.90;;;22.40;98.80;;;;;;5096305;28;20056;-68
2023/05/14 03:02:57;;;;;;;1999.90;999.90;;;22.60;98.90;;;;;;5090716;28;20036;-69
2023/05/14 03:05:25;;;;;;;1999.90;999.90;;;22.60;98.90;;;;;;5087101;28;20086;-67
2023/05/14 03:07:52;;;;;;;1999.90;999.90;;;22.90;98.90;;;;;;5090867;28;20114;-67
2023/05/14 03:10:20;;;;;;;1999.90;999.90;;;23.00;99.10;;;;;;5089386;28;20036;-67
2023/05/14 03:12:48;;;;;;;1999.90;999.90;;;23.20;98.00;;;;;;5084619;28;20020;-67
2023/05/14 03:15:15;;;;;;;1999.90;999.90;;;23.40;98.10;;;;;;5085744;28;20482;-68
2023/05/14 03:17:42;;;;;;;1999.90;999.90;;;23.60;98.20;;;;;;5094695;28;20040;-67
2023/05/14 03:20:10;;;;;;;1999.90;999.90;;;23.60;97.60;;;;;;5085569;28;20039;-69
2023/05/14 03:22:38;;;;;;;1999.90;999.90;;;23.40;96.80;;;;;;5085977;28;20055;-69
2023/05/14 03:25:05;;;;;;;1999.90;999.90;;;23.20;97.00;;;;;;5090857;28;20032;-70
2023/05/14 03:27:33;;;;;;;1999.90;999.90;;;23.00;97.10;;;;;;5091930;28;20161;-67
2023/05/14 03:30:00;;;;;;;1999.90;999.90;;;22.70;97.40;;;;;;5085791;28;20032;-69
2023/05/14 03:32:28;;;;;;;1999.90;999.90;;;22.60;98.10;;;;;;5089857;28;20043;-69
2023/05/14 03:34:55;;;;;;;1999.90;999.90;;;22.40;97.80;;;;;;5082252;28;20016;-68
2023/05/14 03:37:22;;;;;;;1999.90;999.90;;;22.30;98.30;;;;;;5083878;28;20035;-68
2023/05/14 03:39:50;;;;;;;1999.90;999.90;;;22.20;98.20;;;;;;5088191;28;20434;-68
2023/05/14 03:42:17;;;;;;;1999.90;999.90;;;22.10;99.20;;;;;;5098030;28;20027;-68
2023/05/14 03:44:44;;;;;;;1999.90;999.90;;;22.10;99.20;;;;;;5093622;28;20093;-68
2023/05/14 03:47:12;;;;;;;1999.90;999.90;;;22.00;99.30;;;;;;5096783;28;20023;-69
2023/05/14 03:49:39;;;;;;;1999.90;999.90;;;22.00;99.10;;;;;;5090724;28;20500;-70
2023/05/14 03:52:06;;;;;;;1999.90;999.90;;;22.10;98.80;;;;;;5094239;28;20035;-69
2023/05/14 03:54:34;;;;;;;1999.90;999.90;;;22.10;99.20;;;;;;5092144;28;20027;-69
2023/05/14 03:57:02;;;;;;;1999.90;999.90;;;22.00;99.00;;;;;;5092965;28;20042;-68
2023/05/14 03:59:29;;;;;;;1999.90;999.90;;;22.00;98.90;;;;;;5085285;28;20048;-68
2023/05/14 04:01:57;;;;;;;1999.90;999.90;;;21.80;99.20;;;;;;5076458;28;20119;-68
2023/05/14 04:04:24;;;;;;;1999.90;999.90;;;21.70;99.60;;;;;;5093262;28;20043;-68
2023/05/14 04:06:51;;;;;;;1999.90;999.90;;;21.60;99.20;;;;;;5097137;28;20374;-69
2023/05/14 04:09:19;;;;;;;1999.90;999.90;;;21.50;99.70;;;;;;5097714;28;20163;-68
2023/05/14 04:11:46;;;;;;;1999.90;999.90;;;21.40;99.90;;;;;;5094247;28;20030;-69
2023/05/14 04:14:13;;;;;;;1999.90;999.90;;;21.20;99.90;;;;;;5092921;28;20157;-70
2023/05/14 04:16:41;;;;;;;1999.90;999.90;;;21.10;99.90;;;;;;5089699;28;20027;-69
2023/05/14 04:19:08;;;;;;;1999.90;999.90;;;20.90;99.90;;;;;;5085009;28;20036;-69
2023/05/14 04:21:35;;;;;;;1999.90;999.90;;;20.70;99.90;;;;;;5092221;28;20032;-67
2023/05/14 04:24:03;;;;;;;1999.90;999.90;;;20.40;99.90;;;;;;5092046;28;20032;-69
2023/05/14 04:26:30;;;;;;;1999.90;999.90;;;20.10;99.90;;;;;;5092620;28;20024;-69
2023/05/14 04:29:01;;;;;;;1999.90;999.90;;;19.90;99.90;;;;;;5096986;28;20020;-68
2023/05/14 04:31:30;;;;;;;1999.90;999.90;;;19.70;99.90;;;;;;5090620;28;20099;-68
2023/05/14 04:33:57;;;;;;;1999.90;999.90;;;19.50;99.90;;;;;;5091609;28;20073;-68
2023/05/14 04:36:25;;;;;;;1999.90;999.90;;;19.40;99.90;;;;;;5090765;28;20105;-67
2023/05/14 04:38:52;;;;;;;1999.90;999.90;;;19.30;99.90;;;;;;5088649;28;20161;-66
2023/05/14 04:41:20;;;;;;;1999.90;999.90;;;19.10;99.90;;;;;;5087426;28;20032;-69
2023/05/14 04:43:49;;;;;;;1999.90;999.90;;;18.80;99.90;;;;;;5085232;28;20038;-67
2023/05/14 04:46:16;;;;;;;1999.90;999.90;;;18.60;99.90;;;;;;5080618;28;20028;-67
2023/05/14 04:48:45;;;;;;;1999.90;999.90;;;18.50;99.90;;;;;;5087209;28;20452;-67
2023/05/14 04:51:12;;;;;;;1999.90;999.90;;;18.30;99.90;;;;;;5092213;28;20020;-68
2023/05/14 04:53:40;;;;;;;1999.90;999.90;;;18.30;99.90;;;;;;5082413;28;20051;-67
2023/05/14 04:56:07;;;;;;;1999.90;999.90;;;18.20;99.90;;;;;;5092754;28;20051;-71
2023/05/14 04:58:35;;;;;;;1999.90;999.90;;;18.10;99.90;;;;;;5094275;28;20032;-68
2023/05/14 05:01:04;;;;;;;1999.90;999.90;;;18.10;99.90;;;;;;5096127;28;20495;-70
2023/05/14 05:03:32;;;;;;;1999.90;999.90;;;18.10;99.90;;;;;;5095792;28;20051;-67
2023/05/14 05:05:59;;;;;;;1999.90;999.90;;;18.10;99.90;;;;;;5098493;28;20361;-68
2023/05/14 05:08:28;;;;;;;1999.90;999.90;;;18.10;99.90;;;;;;5094650;28;20054;-68
2023/05/14 05:10:55;;;;;;;1999.90;999.90;;;18.10;99.90;;;;;;5090742;28;20027;-68
2023/05/14 05:13:22;;;;;;;1999.90;999.90;;;18.00;99.90;;;;;;5099747;28;20032;-69
2023/05/14 05:15:50;;;;;;;1999.90;999.90;;;18.00;99.90;;;;;;5087828;28;20031;-68
2023/05/14 05:18:17;;;;;;;1999.90;999.90;;;18.00;99.90;;;;;;5092825;28;20124;-69
2023/05/14 05:20:44;;;;;;;1999.90;999.90;;;18.00;99.90;;;;;;5092545;28;20065;-69
2023/05/14 05:23:12;;;;;;;1999.90;999.90;;;18.00;99.90;;;;;;5095651;28;20550;-69
2023/05/14 05:25:39;;;;;;;1999.90;999.90;;;18.00;99.90;;;;;;5093999;28;20378;-68
2023/05/14 05:28:07;;;;;;;1999.90;999.90;;;18.00;99.90;;;;;;5098220;28;20031;-69
2023/05/14 05:30:34;;;;;;;1999.90;999.90;;;18.00;99.90;;;;;;5091869;28;20035;-69
2023/05/14 05:33:02;;;;;;;1999.90;999.90;;;18.00;99.90;;;;;;5095888;28;20038;-70
2023/05/14 05:35:29;;;;;;;1999.90;999.90;;;18.00;99.90;;;;;;5089515;28;21300;-68
2023/05/14 05:37:57;;;;;;;1999.90;999.90;;;18.00;99.90;;;;;;5093775;28;20032;-68
2023/05/14 05:40:25;;;;;;;1999.90;999.90;;;18.00;99.90;;;;;;5081350;28;20035;-69
2023/05/14 05:42:52;;;;;;;1999.90;999.90;;;17.90;99.90;;;;;;5090660;28;20113;-69
2023/05/14 05:45:19;;;;;;;1999.90;999.90;;;18.00;99.90;;;;;;5088224;28;20081;-68
2023/05/14 05:47:47;;;;;;;1999.90;999.90;;;17.80;99.90;;;;;;5093491;28;20036;-69
2023/05/14 05:50:14;;;;;;;1999.90;999.90;;;17.70;99.90;;;;;;5081784;28;20103;-69
2023/05/14 05:52:41;;;;;;;1999.90;999.90;;;17.70;99.90;;;;;;5095285;28;20031;-69
2023/05/14 05:55:09;;;;;;;1999.90;999.90;;;17.60;99.90;;;;;;5090866;28;20114;-69
2023/05/14 05:57:37;;;;;;;1999.90;999.90;;;17.50;99.90;;;;;;5095586;28;20028;-69
2023/05/14 06:00:14;;;;;;;1999.90;999.90;;;17.50;99.90;;;;;;5099646;28;20047;-70
2023/05/14 06:02:41;;;;;;;1999.90;999.90;;;17.50;99.90;;;;;;5101008;28;20505;-68
2023/05/14 06:05:10;;;;;;;1999.90;999.90;;;17.50;99.90;;;;;;5090656;28;20039;-68
2023/05/14 06:07:37;;;;;;;1999.90;999.90;;;17.50;99.90;;;;;;5111765;28;20475;-69
2023/05/14 06:10:05;;;;;;;1999.90;999.90;;;17.50;99.90;;;;;;5094493;28;20032;-67
2023/05/14 06:12:32;;;;;;;1999.90;999.90;;;17.40;99.90;;;;;;5089898;28;20024;-69
2023/05/14 06:15:00;;;;;;;1999.90;999.90;;;17.40;99.90;;;;;;5091050;28;20051;-69
2023/05/14 06:17:27;;;;;;;1999.90;999.90;;;17.40;99.90;;;;;;5093740;28;20133;-69
2023/05/14 06:19:54;;;;;;;1999.90;999.90;;;17.40;99.90;;;;;;5100355;28;20052;-68
2023/05/14 06:22:22;;;;;;;1999.90;999.90;;;17.40;99.90;;;;;;5096461;28;20236;-67
2023/05/14 06:24:49;;;;;;;1999.90;999.90;;;17.40;99.90;;;;;;5083988;28;20035;-68
2023/05/14 06:27:16;;;;;;;1999.90;999.90;;;17.40;99.90;;;;;;5100068;28;20389;-68
2023/05/14 06:29:44;;;;;;;1999.90;999.90;;;17.40;99.90;;;;;;5093359;28;20016;-68
2023/05/14 06:32:14;;;;;;;1999.90;999.90;;;17.40;99.90;;;;;;5099607;28;20505;-67
2023/05/14 06:34:42;;;;;;;1999.90;999.90;;;17.30;99.90;;;;;;5097891;28;20074;-68
2023/05/14 06:37:10;;;;;;;1999.90;999.90;;;17.20;99.90;;;;;;5095624;28;20367;-70
2023/05/14 06:39:38;;;;;;;1999.90;999.90;;;17.10;99.90;;;;;;5096277;28;20058;-69
2023/05/14 06:42:06;;;;;;;1999.90;999.90;;;17.10;99.90;;;;;;5098808;28;20028;-70
2023/05/14 06:44:33;;;;;;;1999.90;999.90;;;17.10;99.90;;;;;;5094437;28;20123;-68
2023/05/14 06:47:00;;;;;;;1999.90;999.90;;;17.10;99.90;;;;;;5100300;28;20028;-69
2023/05/14 06:49:28;;;;;;;1999.90;999.90;;;17.10;99.90;;;;;;5093275;28;20038;-68
2023/05/14 06:51:55;;;;;;;1999.90;999.90;;;17.10;99.90;;;;;;5104740;28;20028;-68
2023/05/14 06:54:22;;;;;;;1999.90;999.90;;;17.10;99.90;;;;;;5096213;28;20028;-68
2023/05/14 06:56:50;;;;;;;1999.90;999.90;;;17.10;99.90;;;;;;5099339;28;20490;-69
2023/05/14 06:59:17;;;;;;;1999.90;999.90;;;17.10;99.90;;;;;;5091747;28;20052;-69
2023/05/14 07:01:44;;;;;;;1999.90;999.90;;;17.00;99.90;;;;;;5094389;28;20564;-70
2023/05/14 07:04:12;;;;;;;1999.90;999.90;;;17.00;99.90;;;;;;5096037;28;20055;-69
2023/05/14 07:06:39;;;;;;;1999.90;999.90;;;17.00;99.90;;;;;;5097858;28;20035;-69
2023/05/14 07:09:06;;;;;;;1999.90;999.90;;;17.00;99.90;;;;;;5093652;28;20490;-70
2023/05/14 07:11:34;;;;;;;1999.90;999.90;;;17.00;99.90;;;;;;5082116;28;20032;-69
2023/05/14 07:14:01;;;;;;;1999.90;999.90;;;17.00;99.90;;;;;;5088088;28;20033;-68
2023/05/14 07:16:28;;;;;;;1999.90;999.90;;;16.90;99.90;;;;;;5097920;28;20070;-68
2023/05/14 07:18:56;;;;;;;1999.90;999.90;;;16.90;99.90;;;;;;5098421;28;20394;-68
2023/05/14 07:21:23;;;;;;;1999.90;999.90;;;16.90;99.90;;;;;;5094757;28;20052;-70
2023/05/14 07:23:50;;;;;;;1999.90;999.90;;;16.90;99.90;;;;;;5099458;28;20123;-68
2023/05/14 07:26:17;;;;;;;1999.90;999.90;;;16.90;99.90;;;;;;5093441;28;20021;-69
2023/05/14 07:28:45;;;;;;;1999.90;999.90;;;16.80;99.90;;;;;;5094714;28;20039;-70
2023/05/14 07:31:12;;;;;;;1999.90;999.90;;;16.80;99.90;;;;;;5107131;28;20023;-69
2023/05/14 07:33:39;;;;;;;1999.90;999.90;;;16.80;99.90;;;;;;5088959;28;20761;-70
2023/05/14 07:36:07;;;;;;;1999.90;999.90;;;16.80;99.90;;;;;;5087950;28;20047;-68
2023/05/14 07:38:35;;;;;;;1999.90;999.90;;;16.70;99.90;;;;;;5090132;28;20028;-68
2023/05/14 07:41:02;;;;;;;1999.90;999.90;;;16.70;99.90;;;;;;5101198;28;20077;-70
2023/05/14 07:43:30;;;;;;;1999.90;999.90;;;16.70;99.90;;;;;;5087426;28;20644;-70
2023/05/14 07:45:57;;;;;;;1999.90;999.90;;;16.60;99.90;;;;;;5088128;28;20024;-70
2023/05/14 07:48:24;;;;;;;1999.90;999.90;;;16.60;99.90;;;;;;5089619;28;20024;-70
2023/05/14 07:50:52;;;;;;;1999.90;999.90;;;16.60;99.90;;;;;;5088169;28;20391;-69
2023/05/14 07:53:20;;;;;;;1999.90;999.90;;;16.50;99.90;;;;;;5089158;28;20028;-69
2023/05/14 07:55:49;;;;;;;1999.90;999.90;;;16.40;99.90;;;;;;5087306;28;20599;-70
2023/05/14 07:58:16;;;;;;;1999.90;999.90;;;16.40;99.90;;;;;;5087568;28;20034;-69
2023/05/14 08:00:43;;;;;;;1999.90;999.90;;;16.30;99.90;;;;;;5088416;28;20066;-71
2023/05/14 08:03:11;;;;;;;1999.90;999.90;;;16.30;99.90;;;;;;5085920;28;20604;-70
2023/05/14 08:05:38;;;;;;;1999.90;999.90;;;16.20;99.90;;;;;;5085282;28;20028;-68
2023/05/14 08:08:05;;;;;;;1999.90;999.90;;;16.20;99.90;;;;;;5093270;28;20024;-70
2023/05/14 08:10:33;;;;;;;1999.90;999.90;;;16.20;99.90;;;;;;5087952;28;20035;-68
2023/05/14 08:13:00;;;;;;;1999.90;999.90;;;16.10;99.90;;;;;;5092279;28;20367;-68
2023/05/14 08:15:28;;;;;;;1999.90;999.90;;;16.00;99.90;;;;;;5096390;28;20038;-68
2023/05/14 08:17:55;;;;;;;1999.90;999.90;;;16.00;99.90;;;;;;5093184;28;20020;-68
2023/05/14 08:20:23;;;;;;;1999.90;999.90;;;16.00;99.90;;;;;;5075328;28;20047;-67
2023/05/14 08:22:50;;;;;;;1999.90;999.90;;;16.00;99.90;;;;;;5092624;28;20024;-69
2023/05/14 08:25:19;;;;;;;1999.90;999.90;;;16.00;99.90;;;;;;5091035;28;20040;-68
2023/05/14 08:27:46;;;;;;;1999.90;999.90;;;16.00;99.90;;;;;;5097690;28;20047;-68
2023/05/14 08:30:14;;;;;;;1999.90;999.90;;;16.00;99.90;;;;;;5095908;28;20043;-68
2023/05/14 08:32:41;;;;;;;1999.90;999.90;;;16.00;99.90;;;;;;5098054;28;20030;-67
2023/05/14 08:35:09;;;;;;;1999.90;999.90;;;16.00;99.90;;;;;;5090451;28;20031;-67
2023/05/14 08:37:37;;;;;;;1999.90;999.90;;;16.00;99.90;;;;;;5075787;28;20028;-68
2023/05/14 08:40:07;;;;;;;1999.90;999.90;;;16.00;99.90;;;;;;5095698;28;20088;-69
2023/05/14 08:42:36;;;;;;;1999.90;999.90;;;16.00;99.90;;;;;;5095298;28;20027;-68
2023/05/14 08:45:08;;;;;;;1999.90;999.90;;;15.90;99.90;;;;;;5091915;28;20382;-69
2023/05/14 08:47:36;;;;;;;1999.90;999.90;;;16.00;99.90;;;;;;5087106;28;20024;-69
2023/05/14 08:50:07;;;;;;;1999.90;999.90;;;15.90;99.90;;;;;;5098212;28;20069;-68
2023/05/14 08:52:35;;;;;;;1999.90;999.90;;;15.90;99.90;;;;;;5095352;28;20020;-70
2023/05/14 08:55:06;;;;;;;1999.90;999.90;;;15.90;99.90;;;;;;5094874;28;20024;-68
2023/05/14 08:57:34;;;;;;;1999.90;999.90;;;15.90;99.90;;;;;;5099298;28;20477;-68
2023/05/14 09:00:13;;;;;;;1999.90;999.90;;;15.90;99.90;;;;;;5096358;28;20048;-68
2023/05/14 09:02:43;;;;;;;1999.90;999.90;;;15.90;99.90;;;;;;5097009;28;20142;-68
2023/05/14 09:05:14;;;;;;;1999.90;999.90;;;15.90;99.90;;;;;;5097884;28;20055;-67
2023/05/14 09:07:41;;;;;;;1999.90;999.90;;;15.90;99.90;;;;;;5100779;28;20095;-69
2023/05/14 09:10:09;;;;;;;1999.90;999.90;;;15.80;99.90;;;;;;5090171;28;20019;-68
2023/05/14 09:12:36;;;;;;;1999.90;999.90;;;15.80;99.90;;;;;;5095042;28;20386;-68
2023/05/14 09:15:05;;;;;;;1999.90;999.90;;;15.80;99.90;;;;;;5090925;28;20039;-68
2023/05/14 09:17:34;;;;;;;1999.90;999.90;;;15.80;99.90;;;;;;5096877;28;20024;-68
2023/05/14 09:20:03;;;;;;;1999.90;999.90;;;15.80;99.90;;;;;;5086937;28;20035;-67
2023/05/14 09:22:33;;;;;;;1999.90;999.90;;;15.70;99.90;;;;;;5092368;28;20473;-68
2023/05/14 09:25:06;;;;;;;1999.90;999.90;;;15.70;99.90;;;;;;5092074;28;20141;-69
2023/05/14 09:27:36;;;;;;;1999.90;999.90;;;15.70;99.90;;;;;;5092585;28;20028;-69
2023/05/14 09:30:07;;;;;;;1999.90;999.90;;;15.60;99.90;;;;;;5092573;28;20157;-69
2023/05/14 09:32:47;;;;;;;1999.90;999.90;;;15.60;99.90;;;;;;5093780;28;20036;-68
2023/05/14 09:35:20;;;;;;;1999.90;999.90;;;15.60;99.90;;;;;;5094411;28;20097;-68
2023/05/14 09:37:52;;;;;;;1999.90;999.90;;;15.60;99.90;;;;;;5084783;28;20490;-67
2023/05/14 09:40:23;;;;;;;1999.90;999.90;;;15.60;99.90;;;;;;5082991;28;20027;-68
2023/05/14 09:42:50;;;;;;;1999.90;999.90;;;15.50;99.90;;;;;;5086037;28;20028;-68
2023/05/14 09:45:18;;;;;;;1999.90;999.90;;;15.50;99.90;;;;;;5085698;28;20071;-69
2023/05/14 09:47:45;;;;;;;1999.90;999.90;;;15.50;99.90;;;;;;5090049;28;20024;-69
2023/05/14 09:50:13;;;;;;;1999.90;999.90;;;15.50;99.90;;;;;;5080420;28;20039;-69
2023/05/14 09:52:40;;;;;;;1999.90;999.90;;;15.40;99.90;;;;;;5092837;28;20027;-69
2023/05/14 09:55:08;;;;;;;1999.90;999.90;;;15.40;99.90;;;;;;5083141;28;20020;-69
2023/05/14 09:57:36;;;;;;;1999.90;999.90;;;15.40;99.90;;;;;;5092113;28;20024;-68
2023/05/14 10:00:04;;;;;;;1999.90;999.90;;;15.40;99.90;;;;;;5093943;28;20394;-68
2023/05/14 10:02:39;;;;;;;1999.90;999.90;;;15.40;99.90;;;;;;5090714;28;20031;-68
2023/05/14 10:05:07;;;;;;;;;;;15.30;99.90;;;;;;5093696;28;20039;-68
2023/05/14 10:07:40;;;;;;;1999.90;999.90;;;15.40;99.90;;;;;;5098091;28;20330;-68
2023/05/14 10:10:10;;;;;;;1999.90;999.90;;;15.40;99.90;;;;;;5091590;28;20081;-68
2023/05/14 10:12:39;;;;;;;1999.90;999.90;;;15.30;99.90;;;;;;5102293;28;20089;-68
2023/05/14 10:15:16;;;;;;;1999.90;999.90;;;15.30;99.90;;;;;;5093302;28;20038;-69
2023/05/14 10:17:52;;;;;;;1999.90;999.90;;;15.30;99.90;;;;;;5098704;28;20012;-68
2023/05/14 10:20:20;;;;;;;1999.90;999.90;;;15.20;99.90;;;;;;5094732;28;20036;-69
2023/05/14 10:22:47;;;;;;;1999.90;999.90;;;15.20;99.90;;;;;;5100287;28;20395;-69
2023/05/14 10:25:15;;;;;;;1999.90;999.90;;;15.20;99.90;;;;;;5089726;28;20050;-68
2023/05/14 10:27:43;;;;;;;1999.90;999.90;;;15.20;99.90;;;;;;5092975;28;20038;-68
2023/05/14 10:30:13;;;;;;;1999.90;999.90;;;15.10;99.90;;;;;;5091973;28;20466;-69
2023/05/14 10:32:43;;;;;;;1999.90;999.90;;;15.10;99.90;;;;;;5092533;28;20470;-68
2023/05/14 10:35:19;;;;;;;1999.90;999.90;;;15.10;99.90;;;;;;5091431;28;20044;-68
2023/05/14 10:37:47;;;;;;;1999.90;999.90;;;15.10;99.90;;;;;;5094933;28;20046;-69
2023/05/14 10:40:14;;;;;;;1999.90;999.90;;;15.10;99.90;;;;;;5085116;28;20020;-68
2023/05/14 10:42:43;;;;;;;1999.90;999.90;;;15.10;99.90;;;;;;5096402;28;20032;-69
2023/05/14 10:45:12;;;;;;;1999.90;999.90;;;15.10;99.90;;;;;;5093825;28;20084;-68
2023/05/14 10:47:42;;;;;;;1999.90;999.90;;;15.00;99.90;;;;;;5104449;28;20809;-68
2023/05/14 10:50:12;;;;;;;1999.90;999.90;;;15.00;99.90;;;;;;5096784;28;20031;-69
2023/05/14 10:52:46;;;;;;;1999.90;999.90;;;15.00;99.90;;;;;;5098151;28;20435;-68
2023/05/14 10:55:15;;;;;;;1999.90;999.90;;;14.90;99.90;;;;;;5099225;28;20035;-70
2023/05/14 10:57:45;;;;;;;1999.90;999.90;;;14.80;99.90;;;;;;5094258;28;20084;-68
2023/05/14 11:00:14;;;;;;;1999.90;999.90;;;14.80;99.90;;;;;;5092445;28;20134;-69
2023/05/14 11:02:43;;;;;;;1999.90;999.90;;;14.80;99.90;;;;;;5074649;28;20034;-70
2023/05/14 11:05:15;;;;;;;1999.90;999.90;;;14.80;99.90;;;;;;5088687;28;20051;-69
2023/05/14 11:07:45;;;;;;;1999.90;999.90;;;14.80;99.90;;;;;;5094585;28;20047;-68
2023/05/14 11:10:14;;;;;;;1999.90;999.90;;;14.80;99.90;;;;;;5087009;28;20431;-69
2023/05/14 11:12:43;;;;;;;1999.90;999.90;;;14.80;99.90;;;;;;5093911;28;20107;-67
2023/05/14 11:15:15;;;;;;;1999.90;999.90;;;14.80;99.90;;;;;;5083936;28;20486;-70
2023/05/14 11:17:45;;;;;;;1999.90;999.90;;;14.80;99.90;;;;;;5087931;28;20036;-68
2023/05/14 11:20:13;;;;;;;1999.90;999.90;;;14.90;99.90;;;;;;5090133;28;20046;-69
2023/05/14 11:22:42;;;;;;;1999.90;999.90;;;14.90;99.90;;;;;;5095892;28;20114;-70
2023/05/14 11:25:13;;;;;;;1999.90;999.90;;;14.90;99.90;;;;;;5089944;28;20039;-67
2023/05/14 11:27:42;;;;;;;1999.90;999.90;;;14.80;99.90;;;;;;5100058;28;20032;-68
2023/05/14 11:30:17;;;;;;;1999.90;999.90;;;14.80;99.90;;;;;;5093273;28;20043;-67
2023/05/14 11:32:49;;;;;;;1999.90;999.90;;;14.70;99.90;;;;;;5092618;28;20040;-68
2023/05/14 11:35:17;;;;;;;1999.90;999.90;;;14.70;99.90;;;;;;5097544;28;20032;-68
2023/05/14 11:37:54;;;;;;;1999.90;999.90;;;14.60;99.90;;;;;;5108836;28;20023;-67
2023/05/14 11:40:21;;;;;;;1999.90;999.90;;;14.50;99.90;;;;;;5091624;28;20024;-68
2023/05/14 11:42:52;;;;;;;1999.90;999.90;;;14.40;99.90;;;;;;5102069;28;20036;-69
2023/05/14 11:45:28;;;;;;;1999.90;999.90;;;14.40;99.90;;;;;;5085536;28;20047;-68
2023/05/14 11:47:55;;;;;;;1999.90;999.90;;;14.40;99.90;;;;;;5095381;28;20115;-68
2023/05/14 11:50:23;;;;;;;1999.90;999.90;;;14.40;99.90;;;;;;5085687;28;20035;-68
2023/05/14 11:52:50;;;;;;;1999.90;999.90;;;14.30;99.90;;;;;;5092431;28;20116;-70
2023/05/14 11:55:18;;;;;;;1999.90;999.90;;;14.20;99.90;;;;;;5095469;28;20031;-70
2023/05/14 11:57:45;;;;;;;1999.90;999.90;;;14.20;99.90;;;;;;5102949;28;20039;-70
2023/05/14 12:00:15;;;;;;;1999.90;999.90;;;14.20;99.90;;;;;;5099180;28;20054;-70
2023/05/14 12:02:42;;;;;;;1999.90;999.90;;;14.20;99.90;;;;;;5096143;28;20039;-71
2023/05/14 12:05:13;;;;;;;1999.90;999.90;;;14.20;99.90;;;;;;5097385;28;20486;-70